Time;durP1;ratioP1;P1;durP2;ratioP2;P2;SDS_P1;SDS_P2;PMS_P1;PMS_P2;Temp;Humidity;BMP_temperature;BMP_pressure;BME280_temperature;BME280_humidity;BME280_pressure;Samples;Min_cycle;Max_cycle;Signal;HPM_P1;HPM_P2
2023/05/23 00:01:59;;;;;;;;;;;21.90;77.20;;;;;;5080268;28;19995;-78
2023/05/23 00:04:26;;;;;;;;;;;21.90;77.40;;;;;;5079938;28;19975;-78
2023/05/23 00:06:53;;;;;;;;;;;21.80;77.50;;;;;;5082011;28;20049;-78
2023/05/23 00:09:20;;;;;;;;;;;21.80;77.50;;;;;;5080488;28;20014;-78
2023/05/23 00:11:46;;;;;;;;;;;21.80;77.50;;;;;;5078001;28;19983;-79
2023/05/23 00:14:14;;;;;;;;;;;21.80;77.60;;;;;;5080148;28;19991;-78
2023/05/23 00:16:41;;;;;;;;;;;21.80;77.80;;;;;;5077414;28;20068;-78
2023/05/23 00:19:08;;;;;;;;;;;21.70;77.70;;;;;;5081793;28;20025;-78
2023/05/23 00:21:36;;;;;;;;;;;21.70;77.80;;;;;;5076676;28;20099;-78
2023/05/23 00:24:04;;;;;;;;;;;21.70;77.90;;;;;;5082310;28;19979;-78
2023/05/23 00:26:30;;;;;;;;;;;21.70;78.00;;;;;;5084150;28;20074;-78
2023/05/23 00:28:57;;;;;;;;;;;21.60;78.00;;;;;;5080924;28;19979;-78
2023/05/23 00:31:24;;;;;;;;;;;21.60;78.10;;;;;;5081807;28;19991;-78
2023/05/23 00:33:51;;;;;;;;;;;21.60;78.10;;;;;;5085030;28;20599;-78
2023/05/23 00:36:18;;;;;;;;;;;21.60;78.20;;;;;;5078847;28;19983;-78
2023/05/23 00:38:46;;;;;;;;;;;21.60;78.30;;;;;;5085865;28;20093;-78
2023/05/23 00:41:12;;;;;;;;;;;21.50;78.20;;;;;;5078186;28;19988;-78
2023/05/23 00:43:39;;;;;;;;;;;21.50;78.30;;;;;;5084832;28;20006;-78
2023/05/23 00:46:05;;;;;;;;;;;21.50;79.10;;;;;;5081428;28;20528;-78
2023/05/23 00:48:32;;;;;;;;;;;21.50;78.40;;;;;;5082553;28;20007;-78
2023/05/23 00:50:59;;;;;;;;;;;21.40;78.40;;;;;;5077291;28;20083;-78
2023/05/23 00:53:26;;;;;;;;;;;21.50;78.50;;;;;;5075839;28;20369;-77
2023/05/23 00:55:54;;;;;;;;;;;21.40;78.50;;;;;;5078029;28;19999;-78
2023/05/23 00:58:21;;;;;;;;;;;21.40;79.40;;;;;;5081205;28;19995;-78
2023/05/23 01:00:49;;;;;;;;;;;21.40;78.70;;;;;;5070452;28;19990;-79
2023/05/23 01:03:16;;;;;;;;;;;21.30;78.70;;;;;;5077881;28;19982;-78
2023/05/23 01:05:43;;;;;;;;;;;21.30;78.80;;;;;;5078595;28;20519;-78
2023/05/23 01:08:10;;;;;;;;;;;21.30;78.90;;;;;;5077022;28;19999;-78
2023/05/23 01:10:37;;;;;;;;;;;21.30;78.90;;;;;;5082769;28;19986;-78
2023/05/23 01:13:10;;;;;;;;;;;21.30;79.00;;;;;;5085446;28;19971;-78
2023/05/23 01:15:40;;;;;;;;;;;21.30;79.10;;;;;;5078972;28;20039;-78
2023/05/23 01:18:08;;;;;;;;;;;21.20;79.10;;;;;;5079662;28;19991;-78
2023/05/23 01:20:38;;;;;;;;;;;21.20;79.10;;;;;;5079796;28;19979;-78
2023/05/23 01:23:11;;;;;;;;;;;21.20;79.20;;;;;;5075767;28;19988;-80
2023/05/23 01:25:58;;;;;;;;;;;21.20;79.30;;;;;;5083670;28;20041;-78
2023/05/23 01:28:29;;;;;;;;;;;21.20;79.30;;;;;;5078458;28;20230;-77
2023/05/23 01:30:57;;;;;;;;;;;21.10;79.40;;;;;;5075914;28;20002;-78
2023/05/23 01:33:25;;;;;;;;;;;21.10;79.40;;;;;;5085480;28;19979;-78
2023/05/23 01:35:51;;;;;;;;;;;21.10;79.50;;;;;;5077794;28;19991;-78
2023/05/23 01:38:18;;;;;;;;;;;21.10;79.50;;;;;;5072874;28;20566;-78
2023/05/23 01:40:44;;;;;;;;;;;21.00;79.50;;;;;;5078798;28;20053;-78
2023/05/23 01:43:11;;;;;;;;;;;21.00;79.50;;;;;;5079045;28;19986;-78
2023/05/23 01:45:39;;;;;;;;;;;21.00;79.60;;;;;;5071273;28;19991;-78
2023/05/23 01:48:06;;;;;;;;;;;21.00;79.70;;;;;;5073144;28;20002;-78
2023/05/23 01:50:32;;;;;;;;;;;21.00;79.70;;;;;;5083328;28;19979;-77
2023/05/23 01:52:59;;;;;;;;;;;21.00;79.70;;;;;;5080224;28;19979;-78
2023/05/23 01:55:26;;;;;;;;;;;21.00;79.80;;;;;;5083878;28;19992;-78
2023/05/23 01:57:54;;;;;;;;;;;21.00;79.80;;;;;;5084021;28;19991;-77
2023/05/23 02:00:21;;;;;;;;;;;21.00;79.90;;;;;;5077373;28;20011;-80
2023/05/23 02:02:49;;;;;;;;;;;20.90;79.80;;;;;;5079333;28;19994;-77
2023/05/23 02:05:16;;;;;;;;;;;20.90;79.90;;;;;;5080293;28;19975;-77
2023/05/23 02:07:42;;;;;;;;;;;20.90;79.90;;;;;;5080577;28;19995;-78
2023/05/23 02:10:09;;;;;;;;;;;20.90;80.00;;;;;;5078485;28;20739;-78
2023/05/23 02:12:36;;;;;;;;;;;20.90;80.00;;;;;;5077949;28;20014;-79
2023/05/23 02:15:02;;;;;;;;;;;20.90;80.10;;;;;;5082066;28;19995;-78
2023/05/23 02:17:29;;;;;;;;;;;20.80;80.10;;;;;;5082288;28;19995;-78
2023/05/23 02:19:57;;;;;;;;;;;20.80;80.10;;;;;;5079676;28;19987;-79
2023/05/23 02:22:24;;;;;;;;;;;20.80;80.10;;;;;;5078830;28;19986;-77
2023/05/23 02:24:51;;;;;;;;;;;20.80;80.20;;;;;;5079458;28;20502;-78
2023/05/23 02:27:17;;;;;;;;;;;20.80;80.20;;;;;;5080443;28;20380;-78
2023/05/23 02:29:44;;;;;;;;;;;20.80;80.30;;;;;;5079513;28;19982;-78
2023/05/23 02:32:10;;;;;;;;;;;20.70;80.20;;;;;;5080021;28;19998;-78
2023/05/23 02:34:37;;;;;;;;;;;20.70;80.30;;;;;;5076842;28;19986;-78
2023/05/23 02:37:05;;;;;;;;;;;20.70;80.30;;;;;;5078895;28;20102;-79
2023/05/23 02:39:31;;;;;;;;;;;20.60;80.30;;;;;;5076075;28;19979;-78
2023/05/23 02:41:58;;;;;;;;;;;20.70;80.50;;;;;;5074430;28;19976;-78
2023/05/23 02:44:24;;;;;;;;;;;20.60;80.50;;;;;;5077188;28;20006;-78
2023/05/23 02:46:51;;;;;;;;;;;20.60;80.50;;;;;;5081546;28;20094;-78
2023/05/23 02:49:18;;;;;;;;;;;20.60;80.60;;;;;;5083273;28;19975;-78
2023/05/23 02:51:44;;;;;;;;;;;20.60;80.60;;;;;;5076385;28;19979;-79
2023/05/23 02:54:12;;;;;;;;;;;20.60;80.60;;;;;;5075520;28;19975;-79
2023/05/23 02:56:38;;;;;;;;;;;20.50;80.60;;;;;;5080586;28;19993;-78
2023/05/23 02:59:05;;;;;;;;;;;20.50;80.70;;;;;;5073697;28;19982;-78
2023/05/23 03:01:31;;;;;;;;;;;20.50;80.70;;;;;;5075852;28;20007;-78
2023/05/23 03:03:58;;;;;;;;;;;20.50;80.80;;;;;;5070349;28;19979;-78
2023/05/23 03:06:26;;;;;;;;;;;20.50;80.90;;;;;;5076744;28;19984;-79
2023/05/23 03:08:52;;;;;;;;;;;20.40;80.80;;;;;;5075857;28;20033;-78
2023/05/23 03:11:21;;;;;;;;;;;20.40;80.80;;;;;;5080026;28;21804;-78
2023/05/23 03:13:48;;;;;;;;;;;20.40;80.90;;;;;;5075308;28;19975;-78
2023/05/23 03:16:14;;;;;;;;;;;20.40;81.00;;;;;;5077209;28;19999;-78
2023/05/23 03:18:41;;;;;;;;;;;20.40;81.00;;;;;;5077458;28;19995;-78
2023/05/23 03:21:08;;;;;;;;;;;20.40;81.10;;;;;;5072540;28;20665;-78
2023/05/23 03:23:35;;;;;;;;;;;20.40;81.10;;;;;;5079644;28;20356;-78
2023/05/23 03:26:02;;;;;;;;;;;20.40;81.10;;;;;;5076550;28;20799;-79
2023/05/23 03:28:30;;;;;;;;;;;20.40;81.20;;;;;;5073230;28;20049;-77
2023/05/23 03:30:57;;;;;;;;;;;20.40;81.20;;;;;;5077239;28;19995;-78
2023/05/23 03:33:23;;;;;;;;;;;20.30;81.20;;;;;;5076141;28;19983;-77
2023/05/23 03:35:50;;;;;;;;;;;20.30;81.20;;;;;;5070487;28;20002;-78
2023/05/23 03:38:16;;;;;;;;;;;20.30;81.30;;;;;;5078585;28;20048;-78
2023/05/23 03:40:43;;;;;;;;;;;20.30;81.40;;;;;;5074757;28;20441;-78
2023/05/23 03:43:09;;;;;;;;;;;20.30;81.30;;;;;;5075574;28;20053;-79
2023/05/23 03:45:37;;;;;;;;;;;20.20;81.30;;;;;;5075200;28;20002;-77
2023/05/23 03:48:04;;;;;;;;;;;20.20;81.40;;;;;;5079950;28;20368;-78
2023/05/23 03:50:31;;;;;;;;;;;20.20;81.40;;;;;;5071565;28;20073;-78
2023/05/23 03:52:57;;;;;;;;;;;20.20;81.60;;;;;;5081283;28;19982;-78
2023/05/23 03:55:24;;;;;;;;;;;20.20;81.50;;;;;;5078297;28;19991;-78
2023/05/23 03:57:51;;;;;;;;;;;20.10;81.50;;;;;;5083864;28;19990;-78
2023/05/23 04:00:17;;;;;;;;;;;20.20;81.60;;;;;;5072275;28;20066;-78
2023/05/23 04:02:46;;;;;;;;;;;20.10;81.60;;;;;;5071836;28;19979;-78
2023/05/23 04:05:12;;;;;;;;;;;20.10;81.60;;;;;;5077819;28;19982;-78
2023/05/23 04:07:40;;;;;;;;;;;20.10;81.70;;;;;;5077077;28;20453;-79
2023/05/23 04:10:07;;;;;;;;;;;20.10;81.70;;;;;;5079426;28;20556;-78
2023/05/23 04:12:34;;;;;;;;;;;20.00;81.70;;;;;;5078946;28;20351;-78
2023/05/23 04:15:01;;;;;;;;;;;20.00;81.70;;;;;;5075158;28;20444;-78
2023/05/23 04:17:29;;;;;;;;;;;20.00;81.70;;;;;;5077245;28;20059;-77
2023/05/23 04:19:57;;;;;;;;;;;20.00;81.80;;;;;;5077633;28;19987;-78
2023/05/23 04:22:23;;;;;;;;;;;20.00;81.80;;;;;;5077172;28;19979;-79
2023/05/23 04:24:50;;;;;;;;;;;20.00;82.20;;;;;;5080417;28;19983;-77
2023/05/23 04:27:17;;;;;;;;;;;20.00;81.90;;;;;;5078074;28;20616;-76
2023/05/23 04:29:45;;;;;;;;;;;20.00;81.90;;;;;;5079814;28;19982;-78
2023/05/23 04:32:12;;;;;;;;;;;20.00;81.90;;;;;;5079924;28;19987;-78
2023/05/23 04:34:40;;;;;;;;;;;20.00;81.90;;;;;;5081733;28;19978;-78
2023/05/23 04:37:08;;;;;;;;;;;19.90;81.90;;;;;;5082394;28;20427;-77
2023/05/23 04:39:34;;;;;;;;;;;19.90;81.90;;;;;;5080300;28;19975;-78
2023/05/23 04:42:01;;;;;;;;;;;19.90;81.90;;;;;;5080941;28;20469;-78
2023/05/23 04:44:29;;;;;;;;;;;19.90;81.90;;;;;;5078777;28;20630;-79
2023/05/23 04:46:55;;;;;;;;;;;19.90;81.90;;;;;;5076642;28;20495;-79
2023/05/23 04:49:22;;;;;;;;;;;19.90;81.90;;;;;;5080591;28;19984;-78
2023/05/23 04:51:49;;;;;;;;;;;19.90;81.90;;;;;;5081320;28;20001;-78
2023/05/23 04:54:17;;;;;;;;;;;19.90;82.00;;;;;;5082716;28;19979;-79
2023/05/23 04:56:44;;;;;;;;;;;19.80;81.80;;;;;;5072726;28;19998;-79
2023/05/23 04:59:12;;;;;;;;;;;19.80;82.50;;;;;;5078705;28;20109;-79
2023/05/23 05:01:39;;;;;;;;;;;19.80;81.80;;;;;;5072635;28;19990;-79
2023/05/23 05:04:05;;;;;;;;;;;19.80;81.80;;;;;;5075989;28;19975;-78
2023/05/23 05:06:32;;;;;;;;;;;19.80;81.80;;;;;;5073855;28;20002;-77
2023/05/23 05:08:59;;;;;;;;;;;19.80;81.80;;;;;;5075455;28;21154;-79
2023/05/23 05:11:27;;;;;;;;;;;19.70;81.70;;;;;;5070955;28;19980;-69
2023/05/23 05:13:54;;;;;;;;;;;19.70;79.50;;;;;;5080313;28;20687;-72
2023/05/23 05:16:20;;;;;;;;;;;19.50;80.40;;;;;;5079991;28;19982;-71
2023/05/23 05:18:47;;;;;;;;;;;19.50;81.00;;;;;;5086100;28;20450;-72
2023/05/23 05:21:13;;;;;;;;;;;19.40;81.30;;;;;;5080963;28;19928;-71
2023/05/23 05:23:40;;;;;;;;;;;19.40;81.50;;;;;;5080915;28;19928;-72
2023/05/23 05:26:07;;;;;;;;;;;19.40;81.60;;;;;;5081288;28;20013;-71
2023/05/23 05:28:35;;;;;;;;;;;19.40;81.70;;;;;;5082263;28;19928;-71
2023/05/23 05:31:03;;;;;;;;;;;19.40;81.70;;;;;;5080169;28;19928;-71
2023/05/23 05:33:34;;;;;;;;;;;19.40;81.60;;;;;;5076854;28;19943;-71
2023/05/23 05:36:01;;;;;;;;;;;19.40;81.60;;;;;;5074705;28;20013;-70
2023/05/23 05:38:28;;;;;;;;;;;19.40;81.60;;;;;;5083373;28;19928;-71
2023/05/23 05:40:54;;;;;;;;;;;19.40;81.60;;;;;;5079108;28;20360;-71
2023/05/23 05:43:21;;;;;;;;;;;19.40;81.50;;;;;;5083556;28;19932;-70
2023/05/23 05:45:49;;;;;;;;;;;19.40;81.50;;;;;;5088875;28;19927;-71
2023/05/23 05:48:16;;;;;;;;;;;19.40;81.50;;;;;;5083039;28;19935;-71
2023/05/23 05:50:44;;;;;;;;;;;19.40;81.40;;;;;;5083565;28;19954;-72
2023/05/23 05:53:11;;;;;;;;;;;19.40;81.20;;;;;;5083615;28;19974;-71
2023/05/23 05:55:37;;;;;;;;;;;19.40;81.10;;;;;;5089255;28;19981;-71
2023/05/23 05:58:04;;;;;;;;;;;19.30;81.00;;;;;;5082045;28;20291;-70
2023/05/23 06:00:31;;;;;;;;;;;19.30;80.90;;;;;;5088560;28;20000;-70
2023/05/23 06:02:59;;;;;;;;;;;19.30;81.00;;;;;;5080950;28;20406;-70
2023/05/23 06:05:25;;;;;;;;;;;19.30;80.90;;;;;;5081170;28;19928;-72
2023/05/23 06:07:52;;;;;;;;;;;19.30;80.90;;;;;;5082019;28;19928;-71
2023/05/23 06:10:18;;;;;;;;;;;19.30;81.00;;;;;;5083512;28;20467;-71
2023/05/23 06:12:45;;;;;;;;;;;19.30;80.80;;;;;;5078489;28;19940;-71
2023/05/23 06:15:13;;;;;;;;;;;19.20;80.60;;;;;;5087953;27;20458;-71
2023/05/23 06:17:40;;;;;;;;;;;19.30;80.60;;;;;;5080025;28;20033;-71
2023/05/23 06:20:08;;;;;;;;;;;19.20;80.50;;;;;;5081971;28;19928;-71
2023/05/23 06:22:34;;;;;;;;;;;19.30;80.50;;;;;;5083553;28;19928;-71
2023/05/23 06:25:01;;;;;;;;;;;19.20;80.40;;;;;;5075027;28;20005;-71
2023/05/23 06:27:27;;;;;;;;;;;19.20;80.40;;;;;;5082407;28;19928;-71
2023/05/23 06:29:54;;;;;;;;;;;19.20;80.20;;;;;;5086610;28;19932;-70
2023/05/23 06:32:21;;;;;;;;;;;19.20;80.00;;;;;;5079357;28;20526;-70
2023/05/23 06:34:47;;;;;;;;;;;19.20;80.00;;;;;;5078820;28;19928;-71
2023/05/23 06:37:16;;;;;;;;;;;19.20;79.90;;;;;;5081479;28;19950;-70
2023/05/23 06:39:43;;;;;;;;;;;19.20;79.90;;;;;;5084871;28;23418;-70
2023/05/23 06:42:09;;;;;;;;;;;19.20;79.70;;;;;;5081173;28;19938;-70
2023/05/23 06:44:36;;;;;;;;;;;19.20;79.70;;;;;;5078363;28;20279;-70
2023/05/23 06:47:02;;;;;;;;;;;19.20;79.60;;;;;;5083592;28;19968;-71
2023/05/23 06:49:29;;;;;;;;;;;19.20;79.50;;;;;;5081966;28;19932;-70
2023/05/23 06:51:55;;;;;;;;;;;19.10;79.40;;;;;;5079202;28;19928;-69
2023/05/23 06:54:23;;;;;;;;;;;19.10;79.30;;;;;;5081941;28;19950;-71
2023/05/23 06:56:50;;;;;;;;;;;19.20;79.50;;;;;;5080639;28;19935;-71
2023/05/23 06:59:16;;;;;;;;;;;19.10;79.10;;;;;;5072999;28;19950;-70
2023/05/23 07:01:43;;;;;;;;;;;19.10;79.00;;;;;;5078060;28;19935;-70
2023/05/23 07:04:10;;;;;;;;;;;19.10;79.00;;;;;;5084237;28;20389;-70
2023/05/23 07:06:38;;;;;;;;;;;19.10;78.80;;;;;;5078673;28;19928;-71
2023/05/23 07:09:05;;;;;;;;;;;19.10;78.90;;;;;;5084879;28;19957;-71
2023/05/23 07:11:34;;;;;;;;;;;19.10;78.80;;;;;;5081160;28;19931;-70
2023/05/23 07:14:00;;;;;;;;;;;19.10;78.80;;;;;;5075680;28;20016;-71
2023/05/23 07:16:27;;;;;;;;;;;19.10;78.70;;;;;;5085420;28;19955;-71
2023/05/23 07:18:53;;;;;;;;;;;19.10;78.60;;;;;;5081814;28;20469;-72
2023/05/23 07:21:20;;;;;;;;;;;19.10;78.60;;;;;;5082895;28;19928;-70
2023/05/23 07:23:46;;;;;;;;;;;19.10;78.50;;;;;;5080138;28;19935;-70
2023/05/23 07:26:13;;;;;;;;;;;19.10;78.40;;;;;;5083445;28;19959;-71
2023/05/23 07:28:41;;;;;;;;;;;19.10;78.40;;;;;;5074942;28;19932;-71
2023/05/23 07:31:08;;;;;;;;;;;19.10;78.40;;;;;;5081477;28;19932;-71
2023/05/23 07:33:34;;;;;;;;;;;19.10;78.30;;;;;;5084488;28;20354;-70
2023/05/23 07:36:01;;;;;;;;;;;19.10;78.20;;;;;;5071184;28;20034;-70
2023/05/23 07:38:27;;;;;;;;;;;19.10;78.10;;;;;;5085150;28;19939;-70
2023/05/23 07:40:54;;;;;;;;;;;19.10;78.90;;;;;;5079970;28;19932;-70
2023/05/23 07:43:21;;;;;;;;;;;19.10;78.20;;;;;;5081705;28;19940;-70
2023/05/23 07:45:49;;;;;;;;;;;19.10;78.20;;;;;;5084890;28;19932;-70
2023/05/23 07:48:15;;;;;;;;;;;19.10;78.20;;;;;;5083332;28;19928;-70
2023/05/23 07:50:42;;;;;;;;;;;19.10;78.20;;;;;;5082592;28;19928;-71
2023/05/23 07:53:08;;;;;;;;;;;19.10;78.20;;;;;;5085330;28;19964;-70
2023/05/23 07:55:35;;;;;;;;;;;19.10;78.10;;;;;;5086969;28;20457;-71
2023/05/23 07:58:01;;;;;;;;;;;19.10;78.10;;;;;;5081645;28;19954;-70
2023/05/23 08:00:28;;;;;;;;;;;19.10;78.00;;;;;;5086846;28;19935;-71
2023/05/23 08:02:56;;;;;;;;;;;19.10;78.00;;;;;;5087318;28;19935;-71
2023/05/23 08:05:23;;;;;;;;;;;19.00;77.80;;;;;;5079355;28;19928;-70
2023/05/23 08:07:49;;;;;;;;;;;19.10;77.70;;;;;;5083853;28;19988;-71
2023/05/23 08:10:16;;;;;;;;;;;19.10;77.60;;;;;;5086792;28;19927;-70
2023/05/23 08:12:42;;;;;;;;;;;19.00;77.40;;;;;;5078450;28;19935;-71
2023/05/23 08:15:10;;;;;;;;;;;19.00;77.40;;;;;;5086763;28;20643;-70
2023/05/23 08:17:36;;;;;;;;;;;19.10;77.50;;;;;;5082110;28;19934;-70
2023/05/23 08:20:05;;;;;;;;;;;19.10;77.40;;;;;;5081352;28;19934;-70
2023/05/23 08:22:32;;;;;;;;;;;19.00;77.30;;;;;;5087332;28;20561;-71
2023/05/23 08:24:58;;;;;;;;;;;19.00;77.20;;;;;;5084287;28;19932;-71
2023/05/23 08:27:25;;;;;;;;;;;19.00;77.10;;;;;;5083649;28;19936;-71
2023/05/23 08:29:52;;;;;;;;;;;19.10;77.20;;;;;;5085559;28;20745;-70
2023/05/23 08:32:18;;;;;;;;;;;19.10;77.20;;;;;;5076487;28;19932;-72
2023/05/23 08:34:45;;;;;;;;;;;19.10;77.10;;;;;;5091432;28;19939;-70
2023/05/23 08:37:12;;;;;;;;;;;19.10;77.10;;;;;;5085848;28;19931;-69
2023/05/23 08:39:40;;;;;;;;;;;19.10;77.00;;;;;;5091467;28;19955;-71
2023/05/23 08:42:07;;;;;;;;;;;19.10;76.90;;;;;;5079824;28;19959;-71
2023/05/23 08:44:33;;;;;;;;;;;19.10;76.80;;;;;;5083121;28;19931;-70
2023/05/23 08:47:04;;;;;;;;;;;19.20;76.70;;;;;;5083414;28;20661;-71
2023/05/23 08:49:31;;;;;;;;;;;19.20;76.70;;;;;;5086204;28;20361;-70
2023/05/23 08:52:00;;;;;;;;;;;19.20;76.50;;;;;;5082809;28;20263;-70
2023/05/23 08:54:28;;;;;;;;;;;19.20;76.50;;;;;;5078333;28;20425;-71
2023/05/23 08:56:55;;;;;;;;;;;19.20;76.40;;;;;;5082205;28;20332;-70
2023/05/23 08:59:22;;;;;;;;;;;19.20;76.30;;;;;;5083146;28;19952;-71
2023/05/23 09:01:50;;;;;;;;;;;19.20;76.30;;;;;;5083161;28;20001;-71
2023/05/23 09:04:16;;;;;;;;;;;19.20;76.50;;;;;;5086813;28;19931;-70
2023/05/23 09:06:43;;;;;;;;;;;19.20;76.40;;;;;;5082612;28;20433;-71
2023/05/23 09:09:09;;;;;;;;;;;19.20;76.30;;;;;;5079557;28;19932;-70
2023/05/23 09:11:38;;;;;;;;;;;19.20;76.40;;;;;;5083758;28;19931;-71
2023/05/23 09:14:06;;;;;;;;;;;19.20;76.30;;;;;;5078189;28;19928;-72
2023/05/23 09:16:33;;;;;;;;;;;19.20;76.20;;;;;;5085697;28;19977;-71
2023/05/23 09:19:09;;;;;;;;;;;19.20;76.20;;;;;;5085777;28;20047;-71
2023/05/23 09:21:36;;;;;;;;;;;19.30;76.10;;;;;;5084923;28;19924;-70
2023/05/23 09:24:02;;;;;;;;;;;19.30;76.10;;;;;;5084622;28;20281;-71
2023/05/23 09:26:29;;;;;;;;;;;19.30;76.10;;;;;;5085362;28;20394;-71
2023/05/23 09:28:59;;;;;;;;;;;19.30;75.90;;;;;;5081444;28;20309;-71
2023/05/23 09:31:26;;;;;;;;;;;19.30;75.70;;;;;;5087959;28;19924;-71
2023/05/23 09:33:52;;;;;;;;;;;19.40;75.50;;;;;;5084387;28;19924;-71
2023/05/23 09:36:19;;;;;;;;;;;19.40;75.30;;;;;;5079897;28;19932;-71
2023/05/23 09:38:47;;;;;;;;;;;19.40;75.30;;;;;;5078254;28;19932;-71
2023/05/23 09:41:14;;;;;;;;;;;19.40;75.00;;;;;;5083279;28;20288;-70
2023/05/23 09:43:41;;;;;;;;;;;19.40;74.90;;;;;;5082227;28;20538;-71
2023/05/23 09:46:09;;;;;;;;;;;19.40;74.60;;;;;;5089081;28;19931;-70
2023/05/23 09:48:36;;;;;;;;;;;19.40;74.70;;;;;;5082972;28;19931;-70
2023/05/23 09:51:06;;;;;;;;;;;19.50;74.40;;;;;;5080819;28;20492;-70
2023/05/23 09:53:32;;;;;;;;;;;19.50;74.40;;;;;;5080498;28;20389;-69
2023/05/23 09:56:00;;;;;;;;;;;19.50;74.40;;;;;;5081646;28;19954;-71
2023/05/23 09:58:27;;;;;;;;;;;19.50;74.40;;;;;;5080974;28;19993;-71
2023/05/23 10:00:55;;;;;;;;;;;19.60;74.30;;;;;;5082242;28;19928;-70
2023/05/23 10:03:26;;;;;;;;;;;19.60;74.40;;;;;;5082082;28;19924;-71
2023/05/23 10:05:56;;;;;;;;;;;19.60;74.00;;;;;;5081974;28;20256;-71
2023/05/23 10:08:25;;;;;;;;;;;19.60;73.70;;;;;;5082450;28;20647;-71
2023/05/23 10:11:23;;;;;;;;;;;19.60;74.00;;;;;;5081623;28;19968;-71
2023/05/23 10:13:52;;;;;;;;;;;19.60;74.00;;;;;;5076977;28;20424;-70
2023/05/23 10:16:19;;;;;;;;;;;19.70;73.50;;;;;;5082434;28;20006;-71
2023/05/23 10:18:49;;;;;;;;;;;19.70;73.50;;;;;;5080460;28;19928;-71
2023/05/23 10:21:19;;;;;;;;;;;19.70;73.40;;;;;;5083269;28;19928;-70
2023/05/23 10:23:46;;;;;;;;;;;19.80;73.40;;;;;;5081973;28;20525;-71
2023/05/23 10:26:13;;;;;;;;;;;19.80;73.40;;;;;;5083081;28;19927;-71
2023/05/23 10:28:40;;;;;;;;;;;19.80;73.20;;;;;;5080965;28;19932;-71
2023/05/23 10:31:07;;;;;;;;;;;19.90;72.50;;;;;;5079724;28;20344;-71
2023/05/23 10:33:35;;;;;;;;;;;19.90;72.90;;;;;;5089893;28;19973;-71
2023/05/23 10:36:08;;;;;;;;;;;19.90;72.80;;;;;;5068528;28;20671;-71
2023/05/23 10:38:38;;;;;;;;;;;20.00;72.40;;;;;;5080587;28;20044;-71
2023/05/23 10:41:09;;;;;;;;;;;20.00;72.20;;;;;;5085820;28;20310;-71
2023/05/23 10:43:40;;;;;;;;;;;20.00;72.30;;;;;;5079577;28;20581;-71
2023/05/23 10:46:08;;;;;;;;;;;20.10;72.20;;;;;;5086488;28;19928;-71
2023/05/23 10:48:35;;;;;;;;;;;20.10;72.20;;;;;;5089130;28;19928;-70
2023/05/23 10:51:04;;;;;;;;;;;20.10;72.00;;;;;;5082619;28;20407;-71
2023/05/23 10:53:31;;;;;;;;;;;20.10;71.80;;;;;;5080159;28;19938;-70
2023/05/23 10:55:58;;;;;;;;;;;20.10;72.70;;;;;;5083530;28;20580;-70
2023/05/23 10:58:25;;;;;;;;;;;20.10;72.10;;;;;;5079337;28;19928;-70
2023/05/23 11:00:53;;;;;;;;;;;20.10;72.00;;;;;;5081280;28;19928;-71
2023/05/23 11:03:30;;;;;;;;;;;20.10;72.00;;;;;;5084310;28;19935;-71
2023/05/23 11:05:57;;;;;;;;;;;20.10;71.90;;;;;;5077640;28;19932;-71
2023/05/23 11:08:25;;;;;;;;;;;20.10;72.00;;;;;;5085618;28;19924;-71
2023/05/23 11:10:52;;;;;;;;;;;20.20;72.20;;;;;;5085655;28;19927;-71
2023/05/23 11:13:18;;;;;;;;;;;20.20;72.00;;;;;;5079259;28;19935;-71
2023/05/23 11:15:45;;;;;;;;;;;20.20;71.40;;;;;;5081106;28;19928;-70
2023/05/23 11:18:19;;;;;;;;;;;20.20;71.40;;;;;;5086925;28;20631;-71
2023/05/23 11:20:47;;;;;;;;;;;20.20;71.50;;;;;;5084626;28;19947;-71
2023/05/23 11:23:13;;;;;;;;;;;20.30;71.70;;;;;;5085354;28;19973;-71
2023/05/23 11:25:42;;;;;;;;;;;20.30;71.70;;;;;;5087144;28;19935;-72
2023/05/23 11:28:09;;;;;;;;;;;20.30;71.30;;;;;;5084291;28;20040;-71
2023/05/23 11:30:37;;;;;;;;;;;20.30;71.70;;;;;;5084661;28;19928;-71
2023/05/23 11:33:07;;;;;;;;;;;20.40;70.70;;;;;;5085341;28;20098;-70
2023/05/23 11:35:34;;;;;;;;;;;20.50;70.70;;;;;;5080859;28;20457;-71
2023/05/23 11:38:01;;;;;;;;;;;20.60;70.00;;;;;;5084605;28;20022;-71
2023/05/23 11:40:29;;;;;;;;;;;20.60;70.10;;;;;;5085410;28;19928;-71
2023/05/23 11:42:57;;;;;;;;;;;20.60;70.40;;;;;;5084766;28;19944;-71
2023/05/23 11:45:24;;;;;;;;;;;20.70;70.50;;;;;;5084898;28;19936;-71
2023/05/23 11:47:50;;;;;;;;;;;20.70;70.50;;;;;;5086588;28;19928;-71
2023/05/23 11:50:19;;;;;;;;;;;20.60;70.50;;;;;;5083670;28;20604;-71
2023/05/23 11:52:50;;;;;;;;;;;20.70;70.40;;;;;;5087425;28;19935;-71
2023/05/23 11:55:16;;;;;;;;;;;20.60;70.50;;;;;;5084678;28;19932;-71
2023/05/23 11:57:43;;;;;;;;;;;20.70;70.50;;;;;;5084761;28;20004;-70
2023/05/23 12:00:12;;;;;;;;;;;20.60;70.70;;;;;;5083814;28;19967;-71
2023/05/23 12:02:39;;;;;;;;;;;20.70;70.80;;;;;;5083662;28;19932;-71
2023/05/23 12:05:09;;;;;;;;;;;20.60;70.70;;;;;;5078145;28;20048;-71
2023/05/23 12:07:36;;;;;;;;;;;20.60;70.50;;;;;;5088177;28;19932;-71
2023/05/23 12:10:03;;;;;;;;;;;20.60;70.30;;;;;;5084448;28;20053;-71
2023/05/23 12:12:31;;;;;;;;;;;20.60;70.00;;;;;;5085679;28;20048;-71
2023/05/23 12:14:58;;;;;;;;;;;20.70;70.60;;;;;;5089935;28;19970;-71
2023/05/23 12:17:26;;;;;;;;;;;20.60;71.00;;;;;;5084252;28;19927;-71
2023/05/23 12:19:53;;;;;;;;;;;20.60;70.80;;;;;;5081521;28;19932;-71
2023/05/23 12:22:23;;;;;;;;;;;20.60;71.20;;;;;;5082174;28;19928;-72
2023/05/23 12:24:52;;;;;;;;;;;20.60;70.80;;;;;;5083566;28;20413;-71
2023/05/23 12:27:20;;;;;;;;;;;20.60;71.10;;;;;;5082602;28;19945;-71
2023/05/23 12:29:50;;;;;;;;;;;20.60;70.70;;;;;;5082353;28;20028;-71
2023/05/23 12:32:16;;;;;;;;;;;20.60;70.80;;;;;;5082864;28;20021;-71
2023/05/23 12:34:44;;;;;;;;;;;20.60;71.10;;;;;;5080564;28;20306;-70
2023/05/23 12:37:13;;;;;;;;;;;20.70;71.00;;;;;;5081485;28;19928;-71
2023/05/23 12:39:43;;;;;;;;;;;20.70;71.20;;;;;;5084377;28;20045;-71
2023/05/23 12:42:10;;;;;;;;;;;20.70;71.30;;;;;;5088047;28;19928;-71
2023/05/23 12:44:36;;;;;;;;;;;20.70;71.20;;;;;;5083580;28;20380;-71
2023/05/23 12:47:03;;;;;;;;;;;20.80;70.80;;;;;;5083555;28;20752;-71
2023/05/23 12:49:29;;;;;;;;;;;20.80;70.50;;;;;;5084303;28;19928;-71
2023/05/23 12:51:57;;;;;;;;;;;20.80;70.60;;;;;;5084657;28;19932;-72
2023/05/23 12:54:24;;;;;;;;;;;20.80;70.50;;;;;;5083163;28;19932;-71
2023/05/23 12:56:50;;;;;;;;;;;20.90;70.60;;;;;;5086542;28;19951;-71
2023/05/23 12:59:17;;;;;;;;;;;20.90;70.60;;;;;;5081156;28;20424;-71
2023/05/23 13:01:43;;;;;;;;;;;20.90;70.40;;;;;;5080759;28;19998;-71
2023/05/23 13:04:10;;;;;;;;;;;21.00;70.20;;;;;;5080016;28;19937;-71
2023/05/23 13:06:36;;;;;;;;;;;21.00;70.20;;;;;;5084926;28;19928;-70
2023/05/23 13:09:04;;;;;;;;;;;21.00;70.10;;;;;;5082917;28;19931;-71
2023/05/23 13:11:31;;;;;;;;;;;21.00;69.60;;;;;;5082414;28;19935;-71
2023/05/23 13:13:57;;;;;;;;;;;21.00;68.80;;;;;;5089670;28;19935;-71
2023/05/23 13:16:24;;;;;;;;;;;21.00;68.90;;;;;;5084497;28;19928;-71
2023/05/23 13:18:50;;;;;;;;;;;21.00;68.80;;;;;;5083490;28;19946;-71
2023/05/23 13:21:17;;;;;;;;;;;21.10;68.80;;;;;;5080658;28;19958;-69
2023/05/23 13:23:44;;;;;;;;;;;21.10;68.60;;;;;;5086161;28;20324;-71
2023/05/23 13:26:13;;;;;;;;;;;21.10;68.40;;;;;;5083841;28;19936;-71
2023/05/23 13:28:39;;;;;;;;;;;21.10;68.60;;;;;;5086312;28;19927;-70
2023/05/23 13:31:06;;;;;;;;;;;21.20;68.50;;;;;;5076015;28;19950;-71
2023/05/23 13:33:33;;;;;;;;;;;21.20;68.30;;;;;;5078289;28;19928;-71
2023/05/23 13:35:59;;;;;;;;;;;21.20;68.10;;;;;;5077146;28;19943;-71
2023/05/23 13:38:26;;;;;;;;;;;21.20;67.70;;;;;;5087208;28;20385;-71
2023/05/23 13:40:53;;;;;;;;;;;21.30;67.90;;;;;;5084456;28;20018;-71
2023/05/23 13:43:21;;;;;;;;;;;21.30;67.90;;;;;;5083976;28;19928;-71
2023/05/23 13:45:47;;;;;;;;;;;21.30;68.30;;;;;;5079925;28;20051;-70
2023/05/23 13:48:14;;;;;;;;;;;21.30;68.50;;;;;;5079543;28;19928;-70
2023/05/23 13:50:43;;;;;;;;;;;21.30;68.50;;;;;;5075592;28;21332;-71
2023/05/23 13:53:13;;;;;;;;;;;21.30;68.20;;;;;;5085802;28;20771;-70
2023/05/23 13:55:40;;;;;;;;;;;21.30;67.60;;;;;;5086670;28;19971;-72
2023/05/23 13:58:07;;;;;;;;;;;21.30;67.90;;;;;;5084824;28;19935;-72
2023/05/23 14:00:35;;;;;;;;;;;21.30;67.70;;;;;;5081512;28;19928;-71
2023/05/23 14:03:02;;;;;;;;;;;21.30;67.20;;;;;;5082498;28;19928;-71
2023/05/23 14:05:29;;;;;;;;;;;21.30;67.70;;;;;;5080094;28;19939;-71
2023/05/23 14:07:55;;;;;;;;;;;21.30;67.70;;;;;;5082560;28;19927;-70
2023/05/23 14:10:22;;;;;;;;;;;21.30;67.90;;;;;;5085314;28;19928;-71
2023/05/23 14:12:49;;;;;;;;;;;21.30;67.70;;;;;;5084996;28;20722;-71
2023/05/23 14:15:16;;;;;;;;;;;21.40;67.60;;;;;;5083365;28;19927;-70
2023/05/23 14:17:44;;;;;;;;;;;21.40;67.80;;;;;;5082623;28;19997;-71